sensor_id;sensor_type;location;lat;lon;timestamp;P1;durP1;ratioP1;P2;durP2;ratioP2
5684;SDS011;2865;53.114;9.130;2023-11-19T00:01:48;3.70;;;3.50;;
5684;SDS011;2865;53.114;9.130;2023-11-19T00:04:14;3.50;;;3.20;;
5684;SDS011;2865;53.114;9.130;2023-11-19T00:06:39;3.40;;;3.07;;
5684;SDS011;2865;53.114;9.130;2023-11-19T00:09:05;3.80;;;3.60;;
5684;SDS011;2865;53.114;9.130;2023-11-19T00:11:30;4.43;;;4.03;;
5684;SDS011;2865;53.114;9.130;2023-11-19T00:13:55;3.60;;;3.40;;
5684;SDS011;2865;53.114;9.130;2023-11-19T00:16:21;3.87;;;3.57;;
5684;SDS011;2865;53.114;9.130;2023-11-19T00:18:46;3.43;;;3.23;;
5684;SDS011;2865;53.114;9.130;2023-11-19T00:21:11;4.03;;;3.73;;
5684;SDS011;2865;53.114;9.130;2023-11-19T00:23:37;4.07;;;3.70;;
5684;SDS011;2865;53.114;9.130;2023-11-19T00:26:03;4.17;;;3.87;;
5684;SDS011;2865;53.114;9.130;2023-11-19T00:28:29;4.17;;;3.67;;
5684;SDS011;2865;53.114;9.130;2023-11-19T00:30:54;4.70;;;4.40;;
5684;SDS011;2865;53.114;9.130;2023-11-19T00:33:20;4.60;;;4.27;;
5684;SDS011;2865;53.114;9.130;2023-11-19T00:35:45;4.13;;;3.77;;
5684;SDS011;2865;53.114;9.130;2023-11-19T00:38:11;4.13;;;3.77;;
5684;SDS011;2865;53.114;9.130;2023-11-19T00:40:36;4.03;;;3.63;;
5684;SDS011;2865;53.114;9.130;2023-11-19T00:43:02;4.90;;;4.57;;
5684;SDS011;2865;53.114;9.130;2023-11-19T00:45:27;7.27;;;5.07;;
5684;SDS011;2865;53.114;9.130;2023-11-19T00:47:53;4.67;;;4.17;;
5684;SDS011;2865;53.114;9.130;2023-11-19T00:50:18;4.83;;;4.53;;
5684;SDS011;2865;53.114;9.130;2023-11-19T00:52:44;4.83;;;4.53;;
5684;SDS011;2865;53.114;9.130;2023-11-19T00:55:10;5.83;;;5.33;;
5684;SDS011;2865;53.114;9.130;2023-11-19T00:57:35;5.80;;;5.30;;
5684;SDS011;2865;53.114;9.130;2023-11-19T01:00:01;5.17;;;4.77;;
5684;SDS011;2865;53.114;9.130;2023-11-19T01:02:26;5.37;;;4.90;;
5684;SDS011;2865;53.114;9.130;2023-11-19T01:04:52;6.70;;;5.90;;
5684;SDS011;2865;53.114;9.130;2023-11-19T01:07:17;7.03;;;6.33;;
5684;SDS011;2865;53.114;9.130;2023-11-19T01:09:43;6.77;;;6.17;;
5684;SDS011;2865;53.114;9.130;2023-11-19T01:12:08;6.90;;;5.60;;
5684;SDS011;2865;53.114;9.130;2023-11-19T01:14:34;6.50;;;5.90;;
5684;SDS011;2865;53.114;9.130;2023-11-19T01:17:00;6.33;;;4.97;;
5684;SDS011;2865;53.114;9.130;2023-11-19T01:19:25;5.60;;;5.10;;
5684;SDS011;2865;53.114;9.130;2023-11-19T01:21:51;6.10;;;5.50;;
5684;SDS011;2865;53.114;9.130;2023-11-19T01:24:16;4.90;;;4.50;;
5684;SDS011;2865;53.114;9.130;2023-11-19T01:26:43;7.17;;;4.90;;
5684;SDS011;2865;53.114;9.130;2023-11-19T01:29:08;6.83;;;5.57;;
5684;SDS011;2865;53.114;9.130;2023-11-19T01:31:33;5.97;;;5.47;;
5684;SDS011;2865;53.114;9.130;2023-11-19T01:33:59;7.30;;;6.60;;
5684;SDS011;2865;53.114;9.130;2023-11-19T01:36:24;7.40;;;5.80;;
5684;SDS011;2865;53.114;9.130;2023-11-19T01:38:49;6.10;;;5.60;;
5684;SDS011;2865;53.114;9.130;2023-11-19T01:41:15;10.73;;;6.60;;
5684;SDS011;2865;53.114;9.130;2023-11-19T01:43:40;6.23;;;5.73;;
5684;SDS011;2865;53.114;9.130;2023-11-19T01:46:06;6.20;;;5.70;;
5684;SDS011;2865;53.114;9.130;2023-11-19T01:48:32;8.70;;;5.37;;
5684;SDS011;2865;53.114;9.130;2023-11-19T01:50:57;6.60;;;5.40;;
5684;SDS011;2865;53.114;9.130;2023-11-19T01:53:22;5.57;;;5.07;;
5684;SDS011;2865;53.114;9.130;2023-11-19T01:55:48;5.50;;;5.10;;
5684;SDS011;2865;53.114;9.130;2023-11-19T01:58:13;4.87;;;4.47;;
5684;SDS011;2865;53.114;9.130;2023-11-19T02:00:38;5.07;;;4.67;;
5684;SDS011;2865;53.114;9.130;2023-11-19T02:03:05;5.10;;;4.60;;
5684;SDS011;2865;53.114;9.130;2023-11-19T02:05:29;4.57;;;4.20;;
5684;SDS011;2865;53.114;9.130;2023-11-19T02:07:55;4.80;;;4.40;;
5684;SDS011;2865;53.114;9.130;2023-11-19T02:10:20;5.77;;;5.27;;
5684;SDS011;2865;53.114;9.130;2023-11-19T02:12:46;4.93;;;4.50;;
5684;SDS011;2865;53.114;9.130;2023-11-19T02:15:11;5.57;;;5.07;;
5684;SDS011;2865;53.114;9.130;2023-11-19T02:17:36;6.27;;;5.10;;
5684;SDS011;2865;53.114;9.130;2023-11-19T02:20:03;5.80;;;5.30;;
5684;SDS011;2865;53.114;9.130;2023-11-19T02:22:31;6.17;;;5.67;;
5684;SDS011;2865;53.114;9.130;2023-11-19T02:24:59;6.03;;;5.53;;
5684;SDS011;2865;53.114;9.130;2023-11-19T02:27:26;6.70;;;6.10;;
5684;SDS011;2865;53.114;9.130;2023-11-19T02:30:04;6.40;;;5.80;;
5684;SDS011;2865;53.114;9.130;2023-11-19T02:32:30;7.33;;;6.63;;
5684;SDS011;2865;53.114;9.130;2023-11-19T02:34:55;7.20;;;6.60;;
5684;SDS011;2865;53.114;9.130;2023-11-19T02:37:21;9.10;;;8.10;;
5684;SDS011;2865;53.114;9.130;2023-11-19T02:39:46;8.77;;;7.97;;
5684;SDS011;2865;53.114;9.130;2023-11-19T02:42:12;9.07;;;8.10;;
5684;SDS011;2865;53.114;9.130;2023-11-19T02:44:37;9.43;;;8.40;;
5684;SDS011;2865;53.114;9.130;2023-11-19T02:47:04;9.93;;;8.93;;
5684;SDS011;2865;53.114;9.130;2023-11-19T02:49:29;10.40;;;9.40;;
5684;SDS011;2865;53.114;9.130;2023-11-19T02:51:54;9.20;;;8.23;;
5684;SDS011;2865;53.114;9.130;2023-11-19T02:54:20;11.47;;;9.53;;
5684;SDS011;2865;53.114;9.130;2023-11-19T02:56:45;12.37;;;10.43;;
5684;SDS011;2865;53.114;9.130;2023-11-19T02:59:10;10.93;;;9.83;;
5684;SDS011;2865;53.114;9.130;2023-11-19T03:01:36;12.33;;;11.07;;
5684;SDS011;2865;53.114;9.130;2023-11-19T03:04:02;10.87;;;9.77;;
5684;SDS011;2865;53.114;9.130;2023-11-19T03:06:27;11.60;;;10.40;;
5684;SDS011;2865;53.114;9.130;2023-11-19T03:08:52;12.37;;;10.93;;
5684;SDS011;2865;53.114;9.130;2023-11-19T03:11:18;20.13;;;11.50;;
5684;SDS011;2865;53.114;9.130;2023-11-19T03:13:43;14.23;;;11.63;;
5684;SDS011;2865;53.114;9.130;2023-11-19T03:16:09;12.97;;;11.53;;
5684;SDS011;2865;53.114;9.130;2023-11-19T03:18:34;24.37;;;12.57;;
5684;SDS011;2865;53.114;9.130;2023-11-19T03:20:59;15.17;;;12.97;;
5684;SDS011;2865;53.114;9.130;2023-11-19T03:23:25;16.07;;;13.93;;
5684;SDS011;2865;53.114;9.130;2023-11-19T03:25:50;16.57;;;13.70;;
5684;SDS011;2865;53.114;9.130;2023-11-19T03:28:16;17.40;;;14.27;;
5684;SDS011;2865;53.114;9.130;2023-11-19T03:30:41;16.23;;;13.37;;
5684;SDS011;2865;53.114;9.130;2023-11-19T03:33:07;19.20;;;12.83;;
5684;SDS011;2865;53.114;9.130;2023-11-19T03:35:32;18.10;;;13.57;;
5684;SDS011;2865;53.114;9.130;2023-11-19T03:37:57;18.20;;;13.63;;
5684;SDS011;2865;53.114;9.130;2023-11-19T03:40:23;21.37;;;15.10;;
5684;SDS011;2865;53.114;9.130;2023-11-19T03:42:48;27.83;;;15.03;;
5684;SDS011;2865;53.114;9.130;2023-11-19T03:45:14;19.77;;;15.10;;
5684;SDS011;2865;53.114;9.130;2023-11-19T03:47:39;19.30;;;14.63;;
5684;SDS011;2865;53.114;9.130;2023-11-19T03:50:05;18.33;;;14.57;;
5684;SDS011;2865;53.114;9.130;2023-11-19T03:52:31;34.97;;;15.37;;
5684;SDS011;2865;53.114;9.130;2023-11-19T03:54:57;32.20;;;15.60;;
5684;SDS011;2865;53.114;9.130;2023-11-19T03:57:22;20.50;;;14.40;;
5684;SDS011;2865;53.114;9.130;2023-11-19T03:59:48;23.00;;;14.90;;
5684;SDS011;2865;53.114;9.130;2023-11-19T04:02:13;16.87;;;14.50;;
5684;SDS011;2865;53.114;9.130;2023-11-19T04:04:39;19.00;;;15.30;;
5684;SDS011;2865;53.114;9.130;2023-11-19T04:07:04;21.93;;;14.23;;
5684;SDS011;2865;53.114;9.130;2023-11-19T04:09:29;20.20;;;14.90;;
5684;SDS011;2865;53.114;9.130;2023-11-19T04:11:55;21.83;;;14.00;;
5684;SDS011;2865;53.114;9.130;2023-11-19T04:14:20;23.90;;;15.70;;
5684;SDS011;2865;53.114;9.130;2023-11-19T04:16:46;20.33;;;14.47;;
5684;SDS011;2865;53.114;9.130;2023-11-19T04:19:11;18.97;;;14.33;;
5684;SDS011;2865;53.114;9.130;2023-11-19T04:21:36;20.33;;;13.40;;
5684;SDS011;2865;53.114;9.130;2023-11-19T04:24:02;29.43;;;16.73;;
5684;SDS011;2865;53.114;9.130;2023-11-19T04:26:28;23.77;;;14.27;;
5684;SDS011;2865;53.114;9.130;2023-11-19T04:28:53;23.50;;;17.90;;
5684;SDS011;2865;53.114;9.130;2023-11-19T04:31:19;20.33;;;14.30;;
5684;SDS011;2865;53.114;9.130;2023-11-19T04:33:44;20.93;;;14.27;;
5684;SDS011;2865;53.114;9.130;2023-11-19T04:36:10;25.23;;;15.00;;
5684;SDS011;2865;53.114;9.130;2023-11-19T04:38:35;33.47;;;15.80;;
5684;SDS011;2865;53.114;9.130;2023-11-19T04:41:01;24.07;;;15.43;;
5684;SDS011;2865;53.114;9.130;2023-11-19T04:43:26;29.87;;;14.73;;
5684;SDS011;2865;53.114;9.130;2023-11-19T04:45:52;30.20;;;15.80;;
5684;SDS011;2865;53.114;9.130;2023-11-19T04:48:17;32.37;;;17.07;;
5684;SDS011;2865;53.114;9.130;2023-11-19T04:50:42;26.50;;;16.00;;
5684;SDS011;2865;53.114;9.130;2023-11-19T04:53:08;22.50;;;14.67;;
5684;SDS011;2865;53.114;9.130;2023-11-19T04:55:33;32.33;;;16.03;;
5684;SDS011;2865;53.114;9.130;2023-11-19T04:57:59;24.80;;;16.07;;
5684;SDS011;2865;53.114;9.130;2023-11-19T05:00:24;32.80;;;16.40;;
5684;SDS011;2865;53.114;9.130;2023-11-19T05:02:50;21.67;;;15.83;;
5684;SDS011;2865;53.114;9.130;2023-11-19T05:05:16;29.27;;;16.13;;
5684;SDS011;2865;53.114;9.130;2023-11-19T05:07:41;25.27;;;13.93;;
5684;SDS011;2865;53.114;9.130;2023-11-19T05:10:07;23.70;;;13.97;;
5684;SDS011;2865;53.114;9.130;2023-11-19T05:12:33;27.63;;;13.33;;
5684;SDS011;2865;53.114;9.130;2023-11-19T05:14:58;37.53;;;15.27;;
5684;SDS011;2865;53.114;9.130;2023-11-19T05:17:24;22.87;;;13.60;;
5684;SDS011;2865;53.114;9.130;2023-11-19T05:19:49;29.97;;;14.47;;
5684;SDS011;2865;53.114;9.130;2023-11-19T05:22:15;21.10;;;12.90;;
5684;SDS011;2865;53.114;9.130;2023-11-19T05:24:40;35.53;;;13.57;;
5684;SDS011;2865;53.114;9.130;2023-11-19T05:27:06;16.93;;;13.00;;
5684;SDS011;2865;53.114;9.130;2023-11-19T05:29:31;23.53;;;12.80;;
5684;SDS011;2865;53.114;9.130;2023-11-19T05:31:57;21.77;;;13.50;;
5684;SDS011;2865;53.114;9.130;2023-11-19T05:34:22;27.23;;;12.60;;
5684;SDS011;2865;53.114;9.130;2023-11-19T05:36:48;28.70;;;13.47;;
5684;SDS011;2865;53.114;9.130;2023-11-19T05:39:13;30.13;;;12.73;;
5684;SDS011;2865;53.114;9.130;2023-11-19T05:41:38;26.13;;;13.43;;
5684;SDS011;2865;53.114;9.130;2023-11-19T05:44:04;30.47;;;13.10;;
5684;SDS011;2865;53.114;9.130;2023-11-19T05:46:29;24.90;;;12.37;;
5684;SDS011;2865;53.114;9.130;2023-11-19T05:48:55;22.17;;;11.40;;
5684;SDS011;2865;53.114;9.130;2023-11-19T05:51:20;22.63;;;11.27;;
5684;SDS011;2865;53.114;9.130;2023-11-19T05:53:46;37.33;;;12.73;;
5684;SDS011;2865;53.114;9.130;2023-11-19T05:56:11;26.30;;;11.10;;
5684;SDS011;2865;53.114;9.130;2023-11-19T05:58:37;20.53;;;10.67;;
5684;SDS011;2865;53.114;9.130;2023-11-19T06:01:02;27.83;;;12.83;;
5684;SDS011;2865;53.114;9.130;2023-11-19T06:03:28;24.80;;;10.07;;
5684;SDS011;2865;53.114;9.130;2023-11-19T06:05:53;26.20;;;9.30;;
5684;SDS011;2865;53.114;9.130;2023-11-19T06:08:20;21.23;;;9.53;;
5684;SDS011;2865;53.114;9.130;2023-11-19T06:10:45;16.63;;;8.37;;
5684;SDS011;2865;53.114;9.130;2023-11-19T06:13:12;33.47;;;8.90;;
5684;SDS011;2865;53.114;9.130;2023-11-19T06:15:37;20.77;;;8.70;;
5684;SDS011;2865;53.114;9.130;2023-11-19T06:18:03;34.10;;;9.53;;
5684;SDS011;2865;53.114;9.130;2023-11-19T06:20:29;30.63;;;9.27;;
5684;SDS011;2865;53.114;9.130;2023-11-19T06:22:55;30.50;;;8.80;;
5684;SDS011;2865;53.114;9.130;2023-11-19T06:25:20;23.97;;;8.40;;
5684;SDS011;2865;53.114;9.130;2023-11-19T06:27:46;33.90;;;9.07;;
5684;SDS011;2865;53.114;9.130;2023-11-19T06:30:11;28.30;;;8.13;;
5684;SDS011;2865;53.114;9.130;2023-11-19T06:32:37;20.50;;;7.17;;
5684;SDS011;2865;53.114;9.130;2023-11-19T06:35:03;22.93;;;8.23;;
5684;SDS011;2865;53.114;9.130;2023-11-19T06:37:29;25.47;;;8.17;;
5684;SDS011;2865;53.114;9.130;2023-11-19T06:39:54;46.77;;;8.87;;
5684;SDS011;2865;53.114;9.130;2023-11-19T06:42:20;28.83;;;7.60;;
5684;SDS011;2865;53.114;9.130;2023-11-19T06:44:45;27.00;;;7.10;;
5684;SDS011;2865;53.114;9.130;2023-11-19T06:47:11;30.53;;;8.70;;
5684;SDS011;2865;53.114;9.130;2023-11-19T06:49:36;23.80;;;7.00;;
5684;SDS011;2865;53.114;9.130;2023-11-19T06:52:02;35.67;;;6.60;;
5684;SDS011;2865;53.114;9.130;2023-11-19T06:54:28;24.17;;;6.40;;
5684;SDS011;2865;53.114;9.130;2023-11-19T06:56:54;32.13;;;6.50;;
5684;SDS011;2865;53.114;9.130;2023-11-19T06:59:19;36.87;;;5.30;;
5684;SDS011;2865;53.114;9.130;2023-11-19T07:01:45;20.63;;;5.60;;
5684;SDS011;2865;53.114;9.130;2023-11-19T07:04:11;37.93;;;7.40;;
5684;SDS011;2865;53.114;9.130;2023-11-19T07:06:37;25.97;;;5.70;;
5684;SDS011;2865;53.114;9.130;2023-11-19T07:09:02;34.07;;;6.90;;
5684;SDS011;2865;53.114;9.130;2023-11-19T07:11:29;20.63;;;5.77;;
5684;SDS011;2865;53.114;9.130;2023-11-19T07:13:54;35.13;;;6.40;;
5684;SDS011;2865;53.114;9.130;2023-11-19T07:16:19;30.27;;;5.10;;
5684;SDS011;2865;53.114;9.130;2023-11-19T07:18:45;33.10;;;6.03;;
5684;SDS011;2865;53.114;9.130;2023-11-19T07:21:10;36.50;;;5.70;;
5684;SDS011;2865;53.114;9.130;2023-11-19T07:23:36;22.37;;;5.33;;
5684;SDS011;2865;53.114;9.130;2023-11-19T07:26:04;46.40;;;6.90;;
5684;SDS011;2865;53.114;9.130;2023-11-19T07:28:27;37.13;;;6.90;;
5684;SDS011;2865;53.114;9.130;2023-11-19T07:30:52;22.73;;;6.23;;
5684;SDS011;2865;53.114;9.130;2023-11-19T07:33:18;20.73;;;6.00;;
5684;SDS011;2865;53.114;9.130;2023-11-19T07:35:43;28.23;;;4.90;;
5684;SDS011;2865;53.114;9.130;2023-11-19T07:38:09;37.90;;;6.57;;
5684;SDS011;2865;53.114;9.130;2023-11-19T07:40:34;32.47;;;6.07;;
5684;SDS011;2865;53.114;9.130;2023-11-19T07:43:00;27.10;;;6.50;;
5684;SDS011;2865;53.114;9.130;2023-11-19T07:45:25;26.30;;;6.13;;
5684;SDS011;2865;53.114;9.130;2023-11-19T07:47:51;35.50;;;6.07;;
5684;SDS011;2865;53.114;9.130;2023-11-19T07:50:16;34.63;;;5.60;;
5684;SDS011;2865;53.114;9.130;2023-11-19T07:52:42;33.17;;;7.40;;
5684;SDS011;2865;53.114;9.130;2023-11-19T07:55:08;32.10;;;5.40;;
5684;SDS011;2865;53.114;9.130;2023-11-19T07:57:33;27.33;;;5.70;;
5684;SDS011;2865;53.114;9.130;2023-11-19T07:59:59;38.73;;;6.60;;
5684;SDS011;2865;53.114;9.130;2023-11-19T08:02:24;34.63;;;6.70;;
5684;SDS011;2865;53.114;9.130;2023-11-19T08:04:50;32.33;;;6.13;;
5684;SDS011;2865;53.114;9.130;2023-11-19T08:07:15;29.57;;;5.60;;
5684;SDS011;2865;53.114;9.130;2023-11-19T08:09:41;50.53;;;6.30;;
5684;SDS011;2865;53.114;9.130;2023-11-19T08:12:06;25.00;;;4.83;;
5684;SDS011;2865;53.114;9.130;2023-11-19T08:14:32;25.83;;;4.90;;
5684;SDS011;2865;53.114;9.130;2023-11-19T08:16:58;36.03;;;8.47;;
5684;SDS011;2865;53.114;9.130;2023-11-19T08:19:23;35.33;;;5.30;;
5684;SDS011;2865;53.114;9.130;2023-11-19T08:21:48;33.97;;;5.33;;
5684;SDS011;2865;53.114;9.130;2023-11-19T08:24:14;25.93;;;7.20;;
5684;SDS011;2865;53.114;9.130;2023-11-19T08:26:39;33.43;;;6.20;;
5684;SDS011;2865;53.114;9.130;2023-11-19T08:29:05;30.47;;;5.73;;
5684;SDS011;2865;53.114;9.130;2023-11-19T08:31:31;36.17;;;5.63;;
5684;SDS011;2865;53.114;9.130;2023-11-19T08:33:56;30.33;;;5.90;;
5684;SDS011;2865;53.114;9.130;2023-11-19T08:36:21;31.30;;;5.20;;
5684;SDS011;2865;53.114;9.130;2023-11-19T08:38:47;24.60;;;4.57;;
5684;SDS011;2865;53.114;9.130;2023-11-19T08:41:12;28.13;;;6.87;;
5684;SDS011;2865;53.114;9.130;2023-11-19T08:43:38;36.47;;;6.10;;
5684;SDS011;2865;53.114;9.130;2023-11-19T08:46:03;32.93;;;4.80;;
5684;SDS011;2865;53.114;9.130;2023-11-19T08:48:30;39.47;;;7.17;;
5684;SDS011;2865;53.114;9.130;2023-11-19T08:50:55;37.97;;;5.87;;
5684;SDS011;2865;53.114;9.130;2023-11-19T08:53:20;35.27;;;5.57;;
5684;SDS011;2865;53.114;9.130;2023-11-19T08:55:46;21.97;;;6.43;;
5684;SDS011;2865;53.114;9.130;2023-11-19T08:58:11;23.47;;;4.60;;
5684;SDS011;2865;53.114;9.130;2023-11-19T09:00:37;23.20;;;4.77;;
5684;SDS011;2865;53.114;9.130;2023-11-19T09:03:02;36.60;;;7.03;;
5684;SDS011;2865;53.114;9.130;2023-11-19T09:05:28;26.83;;;6.03;;
5684;SDS011;2865;53.114;9.130;2023-11-19T09:07:53;24.83;;;5.73;;
5684;SDS011;2865;53.114;9.130;2023-11-19T09:10:19;32.97;;;5.83;;
5684;SDS011;2865;53.114;9.130;2023-11-19T09:12:44;28.07;;;5.57;;
5684;SDS011;2865;53.114;9.130;2023-11-19T09:15:10;30.30;;;6.20;;
5684;SDS011;2865;53.114;9.130;2023-11-19T09:17:36;33.97;;;5.87;;
5684;SDS011;2865;53.114;9.130;2023-11-19T09:20:01;40.53;;;6.60;;
5684;SDS011;2865;53.114;9.130;2023-11-19T09:22:27;25.57;;;5.50;;
5684;SDS011;2865;53.114;9.130;2023-11-19T09:24:52;27.33;;;4.50;;
5684;SDS011;2865;53.114;9.130;2023-11-19T09:27:18;26.60;;;5.87;;
5684;SDS011;2865;53.114;9.130;2023-11-19T09:29:43;30.40;;;5.50;;
5684;SDS011;2865;53.114;9.130;2023-11-19T09:32:08;22.27;;;4.37;;
5684;SDS011;2865;53.114;9.130;2023-11-19T09:34:34;33.53;;;5.67;;
5684;SDS011;2865;53.114;9.130;2023-11-19T09:37:00;24.00;;;5.73;;
5684;SDS011;2865;53.114;9.130;2023-11-19T09:39:25;31.43;;;6.53;;
5684;SDS011;2865;53.114;9.130;2023-11-19T09:41:51;30.40;;;5.70;;
5684;SDS011;2865;53.114;9.130;2023-11-19T09:44:16;29.10;;;6.83;;
5684;SDS011;2865;53.114;9.130;2023-11-19T09:46:41;20.10;;;5.07;;
5684;SDS011;2865;53.114;9.130;2023-11-19T09:49:08;25.60;;;5.17;;
5684;SDS011;2865;53.114;9.130;2023-11-19T09:51:35;29.23;;;5.13;;
5684;SDS011;2865;53.114;9.130;2023-11-19T09:53:59;29.20;;;4.60;;
5684;SDS011;2865;53.114;9.130;2023-11-19T09:56:24;17.10;;;4.57;;
5684;SDS011;2865;53.114;9.130;2023-11-19T09:58:50;23.43;;;4.67;;
5684;SDS011;2865;53.114;9.130;2023-11-19T10:01:15;31.10;;;4.80;;
5684;SDS011;2865;53.114;9.130;2023-11-19T10:03:41;26.93;;;5.57;;
5684;SDS011;2865;53.114;9.130;2023-11-19T10:06:06;37.07;;;5.33;;
5684;SDS011;2865;53.114;9.130;2023-11-19T10:08:33;31.73;;;6.30;;
5684;SDS011;2865;53.114;9.130;2023-11-19T10:10:58;21.40;;;4.37;;
5684;SDS011;2865;53.114;9.130;2023-11-19T10:13:26;26.03;;;5.57;;
5684;SDS011;2865;53.114;9.130;2023-11-19T10:15:52;31.00;;;6.10;;
5684;SDS011;2865;53.114;9.130;2023-11-19T10:18:17;42.27;;;6.67;;
5684;SDS011;2865;53.114;9.130;2023-11-19T10:20:42;25.37;;;5.57;;
5684;SDS011;2865;53.114;9.130;2023-11-19T10:23:08;25.53;;;5.77;;
5684;SDS011;2865;53.114;9.130;2023-11-19T10:25:33;26.83;;;6.07;;
5684;SDS011;2865;53.114;9.130;2023-11-19T10:27:59;33.57;;;5.43;;
5684;SDS011;2865;53.114;9.130;2023-11-19T10:30:25;30.83;;;5.87;;
5684;SDS011;2865;53.114;9.130;2023-11-19T10:35:27;24.37;;;5.40;;
5684;SDS011;2865;53.114;9.130;2023-11-19T10:37:53;27.60;;;5.80;;
5684;SDS011;2865;53.114;9.130;2023-11-19T10:40:18;24.17;;;6.97;;
5684;SDS011;2865;53.114;9.130;2023-11-19T10:42:44;29.93;;;6.17;;
5684;SDS011;2865;53.114;9.130;2023-11-19T10:47:47;27.13;;;5.50;;
5684;SDS011;2865;53.114;9.130;2023-11-19T10:50:12;26.47;;;5.03;;
5684;SDS011;2865;53.114;9.130;2023-11-19T10:52:38;21.37;;;5.70;;
5684;SDS011;2865;53.114;9.130;2023-11-19T10:55:03;16.70;;;5.27;;
5684;SDS011;2865;53.114;9.130;2023-11-19T10:57:29;26.23;;;5.50;;
5684;SDS011;2865;53.114;9.130;2023-11-19T10:59:55;25.87;;;5.20;;
5684;SDS011;2865;53.114;9.130;2023-11-19T11:02:21;18.57;;;7.10;;
5684;SDS011;2865;53.114;9.130;2023-11-19T11:04:47;19.77;;;5.03;;
5684;SDS011;2865;53.114;9.130;2023-11-19T11:07:12;27.43;;;5.53;;
5684;SDS011;2865;53.114;9.130;2023-11-19T11:09:38;20.37;;;5.43;;
5684;SDS011;2865;53.114;9.130;2023-11-19T11:12:04;33.43;;;5.67;;
5684;SDS011;2865;53.114;9.130;2023-11-19T11:14:30;27.47;;;5.13;;
5684;SDS011;2865;53.114;9.130;2023-11-19T11:16:56;27.23;;;6.10;;
5684;SDS011;2865;53.114;9.130;2023-11-19T11:19:21;21.07;;;5.63;;
5684;SDS011;2865;53.114;9.130;2023-11-19T11:21:49;17.03;;;5.17;;
5684;SDS011;2865;53.114;9.130;2023-11-19T11:24:51;24.57;;;5.20;;
5684;SDS011;2865;53.114;9.130;2023-11-19T11:27:16;23.93;;;5.77;;
5684;SDS011;2865;53.114;9.130;2023-11-19T11:29:52;32.53;;;6.77;;
5684;SDS011;2865;53.114;9.130;2023-11-19T11:32:25;32.67;;;6.07;;
5684;SDS011;2865;53.114;9.130;2023-11-19T11:35:08;33.77;;;5.57;;
5684;SDS011;2865;53.114;9.130;2023-11-19T11:37:44;29.33;;;5.57;;
5684;SDS011;2865;53.114;9.130;2023-11-19T11:40:13;21.33;;;4.50;;
5684;SDS011;2865;53.114;9.130;2023-11-19T11:42:36;25.10;;;5.07;;
5684;SDS011;2865;53.114;9.130;2023-11-19T11:45:03;17.90;;;4.90;;
5684;SDS011;2865;53.114;9.130;2023-11-19T11:50:22;33.03;;;6.00;;
5684;SDS011;2865;53.114;9.130;2023-11-19T11:55:39;31.70;;;5.93;;
5684;SDS011;2865;53.114;9.130;2023-11-19T11:58:02;29.70;;;5.27;;
5684;SDS011;2865;53.114;9.130;2023-11-19T12:00:29;28.40;;;5.63;;
5684;SDS011;2865;53.114;9.130;2023-11-19T12:02:56;34.03;;;5.43;;
5684;SDS011;2865;53.114;9.130;2023-11-19T12:05:21;46.17;;;5.13;;
5684;SDS011;2865;53.114;9.130;2023-11-19T12:10:20;35.93;;;7.13;;
5684;SDS011;2865;53.114;9.130;2023-11-19T12:12:45;30.40;;;6.17;;
5684;SDS011;2865;53.114;9.130;2023-11-19T12:15:11;29.37;;;5.40;;
5684;SDS011;2865;53.114;9.130;2023-11-19T12:17:41;27.23;;;6.07;;
5684;SDS011;2865;53.114;9.130;2023-11-19T12:20:06;33.30;;;5.70;;
5684;SDS011;2865;53.114;9.130;2023-11-19T12:22:36;28.80;;;5.90;;
5684;SDS011;2865;53.114;9.130;2023-11-19T12:25:00;26.33;;;5.00;;
5684;SDS011;2865;53.114;9.130;2023-11-19T12:27:27;30.90;;;5.20;;
5684;SDS011;2865;53.114;9.130;2023-11-19T12:29:52;33.57;;;5.97;;
5684;SDS011;2865;53.114;9.130;2023-11-19T12:32:18;41.30;;;6.43;;
5684;SDS011;2865;53.114;9.130;2023-11-19T12:34:44;33.20;;;5.20;;
5684;SDS011;2865;53.114;9.130;2023-11-19T12:37:09;19.93;;;4.13;;
5684;SDS011;2865;53.114;9.130;2023-11-19T12:39:34;25.17;;;5.53;;
5684;SDS011;2865;53.114;9.130;2023-11-19T12:42:00;33.70;;;5.83;;
5684;SDS011;2865;53.114;9.130;2023-11-19T12:44:25;32.27;;;4.87;;
5684;SDS011;2865;53.114;9.130;2023-11-19T12:49:26;33.40;;;5.73;;
5684;SDS011;2865;53.114;9.130;2023-11-19T12:51:52;33.00;;;5.60;;
5684;SDS011;2865;53.114;9.130;2023-11-19T12:54:17;33.30;;;5.37;;
5684;SDS011;2865;53.114;9.130;2023-11-19T12:56:51;49.77;;;7.37;;
5684;SDS011;2865;53.114;9.130;2023-11-19T12:59:23;21.27;;;4.80;;
5684;SDS011;2865;53.114;9.130;2023-11-19T13:01:54;23.03;;;5.20;;
5684;SDS011;2865;53.114;9.130;2023-11-19T13:04:20;33.50;;;5.40;;
5684;SDS011;2865;53.114;9.130;2023-11-19T13:06:45;25.87;;;5.30;;
5684;SDS011;2865;53.114;9.130;2023-11-19T13:09:21;30.97;;;5.73;;
5684;SDS011;2865;53.114;9.130;2023-11-19T13:11:36;25.30;;;5.43;;
5684;SDS011;2865;53.114;9.130;2023-11-19T13:14:03;14.70;;;3.77;;
5684;SDS011;2865;53.114;9.130;2023-11-19T13:16:30;20.53;;;3.67;;
5684;SDS011;2865;53.114;9.130;2023-11-19T13:18:55;18.47;;;3.50;;
5684;SDS011;2865;53.114;9.130;2023-11-19T13:21:20;24.47;;;3.17;;
5684;SDS011;2865;53.114;9.130;2023-11-19T13:23:46;14.93;;;3.80;;
5684;SDS011;2865;53.114;9.130;2023-11-19T13:26:11;16.83;;;3.10;;
5684;SDS011;2865;53.114;9.130;2023-11-19T13:28:37;11.60;;;2.63;;
5684;SDS011;2865;53.114;9.130;2023-11-19T13:31:02;12.90;;;2.70;;
5684;SDS011;2865;53.114;9.130;2023-11-19T13:33:28;17.30;;;2.80;;
5684;SDS011;2865;53.114;9.130;2023-11-19T13:35:53;8.90;;;2.80;;
5684;SDS011;2865;53.114;9.130;2023-11-19T13:38:19;11.13;;;2.40;;
5684;SDS011;2865;53.114;9.130;2023-11-19T13:40:44;4.73;;;1.90;;
5684;SDS011;2865;53.114;9.130;2023-11-19T13:43:10;8.27;;;2.10;;
5684;SDS011;2865;53.114;9.130;2023-11-19T13:45:35;8.93;;;3.03;;
5684;SDS011;2865;53.114;9.130;2023-11-19T13:48:01;3.60;;;1.80;;
5684;SDS011;2865;53.114;9.130;2023-11-19T13:50:27;6.20;;;1.67;;
5684;SDS011;2865;53.114;9.130;2023-11-19T13:52:52;7.40;;;1.60;;
5684;SDS011;2865;53.114;9.130;2023-11-19T13:55:17;5.07;;;1.70;;
5684;SDS011;2865;53.114;9.130;2023-11-19T13:57:43;6.50;;;1.70;;
5684;SDS011;2865;53.114;9.130;2023-11-19T14:00:09;6.53;;;2.17;;
5684;SDS011;2865;53.114;9.130;2023-11-19T14:02:39;11.13;;;2.00;;
5684;SDS011;2865;53.114;9.130;2023-11-19T14:05:05;22.10;;;2.67;;
5684;SDS011;2865;53.114;9.130;2023-11-19T14:07:31;4.43;;;2.30;;
5684;SDS011;2865;53.114;9.130;2023-11-19T14:09:57;8.10;;;2.20;;
5684;SDS011;2865;53.114;9.130;2023-11-19T14:12:23;7.00;;;2.10;;
5684;SDS011;2865;53.114;9.130;2023-11-19T14:14:48;10.67;;;2.40;;
5684;SDS011;2865;53.114;9.130;2023-11-19T14:17:14;6.70;;;2.13;;
5684;SDS011;2865;53.114;9.130;2023-11-19T14:19:39;7.50;;;3.13;;
5684;SDS011;2865;53.114;9.130;2023-11-19T14:22:05;17.67;;;3.20;;
5684;SDS011;2865;53.114;9.130;2023-11-19T14:24:30;12.53;;;3.10;;
5684;SDS011;2865;53.114;9.130;2023-11-19T14:26:55;10.33;;;2.87;;
5684;SDS011;2865;53.114;9.130;2023-11-19T14:29:21;9.63;;;2.83;;
5684;SDS011;2865;53.114;9.130;2023-11-19T14:31:46;17.33;;;4.70;;
5684;SDS011;2865;53.114;9.130;2023-11-19T14:34:12;16.93;;;3.80;;
5684;SDS011;2865;53.114;9.130;2023-11-19T14:36:37;21.33;;;4.37;;
5684;SDS011;2865;53.114;9.130;2023-11-19T14:39:03;16.47;;;3.60;;
5684;SDS011;2865;53.114;9.130;2023-11-19T14:41:29;14.03;;;4.00;;
5684;SDS011;2865;53.114;9.130;2023-11-19T14:43:55;20.40;;;3.30;;
5684;SDS011;2865;53.114;9.130;2023-11-19T14:46:20;17.60;;;3.73;;
5684;SDS011;2865;53.114;9.130;2023-11-19T14:48:46;11.37;;;3.70;;
5684;SDS011;2865;53.114;9.130;2023-11-19T14:51:11;19.33;;;3.70;;
5684;SDS011;2865;53.114;9.130;2023-11-19T14:53:36;19.50;;;4.10;;
5684;SDS011;2865;53.114;9.130;2023-11-19T14:56:02;15.53;;;4.97;;
5684;SDS011;2865;53.114;9.130;2023-11-19T14:58:27;21.00;;;4.00;;
5684;SDS011;2865;53.114;9.130;2023-11-19T15:00:53;28.67;;;4.30;;
5684;SDS011;2865;53.114;9.130;2023-11-19T15:03:18;18.13;;;3.23;;
5684;SDS011;2865;53.114;9.130;2023-11-19T15:05:45;11.83;;;4.37;;
5684;SDS011;2865;53.114;9.130;2023-11-19T15:08:10;15.53;;;4.10;;
5684;SDS011;2865;53.114;9.130;2023-11-19T15:10:35;19.00;;;3.60;;